Terminal Aerodrome Forecast
Issued by NWS

Home | Current Version | Previous Version | Text Only | Print | Product List | Glossary Off
Versions: 1 2 3 4 5 6 7 8 9 10 11 12 13 14 15 16

143
FTUS43 KBIS 082324
TAFJMS
TAF
KJMS 082324Z 0900/0924 34015G22KT P6SM SCT150
     FM090200 34011KT P6SM SCT150
     FM090500 34009KT P6SM BKN150=

USA.gov is the U.S. government's official web portal to all federal, state and local government web resources and services.